Time;durP1;ratioP1;P1;durP2;ratioP2;P2;SDS_P1;SDS_P2;PMS_P1;PMS_P2;Temp;Humidity;BMP_temperature;BMP_pressure;BME280_temperature;BME280_humidity;BME280_pressure;Samples;Min_cycle;Max_cycle;Signal;HPM_P1;HPM_P2
2022/02/09 00:04:39;;;;;;;1.80;1.20;;;;;;;6.92;100.00;100022.72;5086536;28;20013;-68
2022/02/09 00:07:10;;;;;;;3.88;1.75;;;;;;;6.90;100.00;100020.94;5086648;28;20032;-68
2022/02/09 00:09:36;;;;;;;4.57;1.73;;;;;;;6.93;100.00;100024.47;5086727;28;20366;-68
2022/02/09 00:12:10;;;;;;;2.78;1.70;;;;;;;6.92;100.00;100025.34;5087485;28;20183;-68
2022/02/09 00:40:59;;;;;;;4.28;2.15;;;;;;;7.08;100.00;99998.56;5085885;28;20017;-68
2022/02/09 01:03:05;;;;;;;6.95;3.00;;;;;;;7.12;100.00;99983.81;5085710;28;20106;-68
2022/02/09 01:38:09;;;;;;;5.57;2.53;;;;;;;7.07;100.00;99998.53;5084885;28;20043;-68
2022/02/09 01:55:25;;;;;;;5.68;2.70;;;;;;;7.03;100.00;99991.50;5084402;28;20254;-68
2022/02/09 01:56:45;;;;;;;4.53;2.25;;;;;;;7.06;100.00;99989.81;5082088;28;20370;-68
2022/02/09 01:59:11;;;;;;;6.45;2.42;;;;;;;7.03;100.00;99986.25;5084859;28;20048;-68
2022/02/09 02:01:36;;;;;;;5.10;2.22;;;;;;;7.02;100.00;99981.91;5084404;28;20025;-68
2022/02/09 02:04:02;;;;;;;6.32;2.42;;;;;;;7.02;100.00;99985.38;5084398;28;20020;-68
2022/02/09 02:06:27;;;;;;;9.55;3.05;;;;;;;6.98;100.00;99962.63;5084278;28;20320;-68
2022/02/09 02:08:54;;;;;;;7.93;2.67;;;;;;;6.98;100.00;99973.09;5084201;28;20020;-68
2022/02/09 02:11:27;;;;;;;4.80;2.63;;;;;;;6.95;100.00;99957.34;5084247;28;20028;-68
2022/02/09 02:14:58;;;;;;;5.70;2.35;;;;;;;6.99;100.00;99963.53;5083159;28;20220;-68
2022/02/09 02:16:56;;;;;;;4.65;2.58;;;;;;;6.97;100.00;99952.13;5067860;28;20033;-68
2022/02/09 02:22:15;;;;;;;4.28;2.00;;;;;;;6.94;100.00;99950.34;5080385;28;20340;-68
2022/02/09 02:27:25;;;;;;;7.25;2.50;;;;;;;6.96;100.00;99945.16;5083839;28;20302;-68
2022/02/09 03:13:27;;;;;;;12.65;3.70;;;;;;;6.88;100.00;99917.97;5054567;28;20276;-68
2022/02/09 03:16:02;;;;;;;15.38;4.47;;;;;;;6.80;100.00;99915.22;5083223;28;20025;-68
2022/02/09 03:55:39;;;;;;;7.45;3.17;;;;;;;6.78;100.00;99910.81;5079905;28;20062;-68
2022/02/09 03:58:05;;;;;;;8.57;4.00;;;;;;;6.78;100.00;99911.72;5082572;28;20104;-68
2022/02/09 04:00:35;;;;;;;5.90;3.22;;;;;;;6.75;100.00;99900.31;5082402;28;20027;-68
2022/02/09 04:03:02;;;;;;;8.10;2.97;;;;;;;6.81;100.00;99905.66;5082664;28;20070;-68
2022/02/09 04:05:28;;;;;;;6.85;2.95;;;;;;;6.79;100.00;99908.22;5082723;28;20024;-68
2022/02/09 04:07:55;;;;;;;7.53;3.22;;;;;;;6.77;100.00;99904.69;5082490;28;20029;-68
2022/02/09 04:10:26;;;;;;;12.40;3.35;;;;;;;6.77;100.00;99903.84;5082857;28;20020;-68
2022/02/09 04:37:31;;;;;;;11.60;4.70;;;;;;;6.89;100.00;99878.72;5079357;28;20051;-68
2022/02/09 04:40:06;;;;;;;12.07;3.67;;;;;;;6.92;100.00;99876.16;5079285;28;20032;-68
2022/02/09 04:42:42;;;;;;;10.65;4.13;;;;;;;6.88;100.00;99870.84;5082449;28;20019;-68
2022/02/09 04:50:55;;;;;;;10.77;3.88;;;;;;;6.82;100.00;99882.13;5068024;28;20033;-68
2022/02/09 04:54:16;;;;;;;13.85;4.32;;;;;;;6.86;100.00;99877.81;5085978;28;20048;-68
2022/02/09 04:56:31;;;;;;;7.97;3.40;;;;;;;6.87;100.00;99877.84;5084548;28;20032;-68
2022/02/09 04:59:25;;;;;;;13.52;4.07;;;;;;;6.87;100.00;99875.22;5084151;28;20320;-68
2022/02/09 05:28:17;;;;;;;10.30;3.47;;;;;;;6.92;100.00;99878.78;5084315;28;20028;-68
2022/02/09 05:30:45;;;;;;;10.48;3.72;;;;;;;6.85;100.00;99882.16;5082881;28;20051;-68
2022/02/09 05:33:11;;;;;;;11.35;3.42;;;;;;;6.86;100.00;99878.69;5084065;28;20388;-68
2022/02/09 05:35:36;;;;;;;6.57;3.13;;;;;;;6.92;100.00;99885.72;5085021;28;20025;-68
2022/02/09 05:38:03;;;;;;;6.90;3.10;;;;;;;6.93;100.00;99875.28;5084954;28;20016;-68
2022/02/09 05:40:29;;;;;;;8.52;3.22;;;;;;;6.87;100.00;99890.94;5085514;28;20024;-68
2022/02/09 05:42:56;;;;;;;9.48;3.90;;;;;;;6.86;100.00;99893.53;5085886;28;20029;-68
2022/02/09 05:45:24;;;;;;;8.15;3.60;;;;;;;6.89;100.00;99899.66;5085764;28;20016;-68
2022/02/09 05:51:06;;;;;;;10.65;3.42;;;;;;;6.93;100.00;99893.63;5031454;28;20042;-68
2022/02/09 05:57:09;;;;;;;16.50;4.47;;;;;;;6.89;100.00;99886.59;5085856;28;20093;-68
2022/02/09 06:01:49;;;;;;;13.57;3.45;;;;;;;6.78;100.00;99896.03;5061928;28;20036;-68
2022/02/09 06:04:14;;;;;;;10.05;4.40;;;;;;;6.78;100.00;99896.03;5085458;28;20042;-68
2022/02/09 06:06:40;;;;;;;13.60;4.13;;;;;;;6.82;100.00;99891.69;5085377;28;20070;-68
2022/02/09 06:09:08;;;;;;;12.60;4.53;;;;;;;6.82;100.00;99882.13;5085519;28;20020;-68
2022/02/09 06:11:43;;;;;;;8.98;4.35;;;;;;;6.90;99.62;99885.75;5085255;28;20020;-68
2022/02/09 06:22:01;;;;;;;15.85;3.25;;;;;;;6.82;100.00;99882.13;5085127;28;20074;-68
2022/02/09 06:24:27;;;;;;;9.73;3.15;;;;;;;6.81;100.00;99875.13;5084983;28;20092;-68
2022/02/09 06:26:52;;;;;;;19.77;3.85;;;;;;;6.82;99.85;99882.13;5084938;28;20023;-68
2022/02/09 06:29:18;;;;;;;6.78;3.42;;;;;;;6.83;99.92;99883.88;5084847;28;20336;-68
2022/02/09 06:31:46;;;;;;;5.50;2.92;;;;;;;6.82;99.64;99879.50;5084725;28;20044;-68
2022/02/09 06:34:13;;;;;;;9.98;3.80;;;;;;;6.75;100.00;99895.06;5084838;28;20122;-68
2022/02/09 06:36:42;;;;;;;9.02;2.78;;;;;;;6.79;100.00;99892.53;5084949;28;20025;-68
2022/02/09 06:39:10;;;;;;;8.73;2.83;;;;;;;6.81;100.00;99885.59;5084729;28;20092;-68
2022/02/09 06:41:36;;;;;;;11.13;3.47;;;;;;;6.80;100.00;99877.72;5084767;28;20024;-68
2022/02/09 06:44:03;;;;;;;11.32;3.65;;;;;;;6.82;100.00;99874.25;5084642;28;20342;-68
2022/02/09 06:46:34;;;;;;;12.10;3.85;;;;;;;6.78;100.00;99875.09;5084597;28;20193;-68
2022/02/09 06:49:04;;;;;;;9.13;3.80;;;;;;;6.75;100.00;99875.03;5084530;28;20031;-68
2022/02/09 06:51:33;;;;;;;8.50;3.17;;;;;;;6.75;100.00;99872.41;5084494;28;20087;-68
2022/02/09 06:54:03;;;;;;;7.60;2.78;;;;;;;6.80;99.93;99873.34;5084470;28;20042;-68
2022/02/09 06:59:20;;;;;;;13.52;3.65;;;;;;;6.82;100.00;99874.25;5084414;28;20335;-68
2022/02/09 07:01:46;;;;;;;5.15;2.55;;;;;;;6.86;99.94;99878.69;5084644;28;20181;-68
2022/02/09 07:04:11;;;;;;;14.38;2.85;;;;;;;6.88;99.75;99876.09;5084311;28;20030;-68
2022/02/09 07:06:37;;;;;;;7.85;2.65;;;;;;;6.89;99.91;99873.50;5084409;28;20370;-68
2022/02/09 07:09:03;;;;;;;6.30;2.75;;;;;;;6.87;99.31;99877.84;5083698;28;20020;-68
2022/02/09 07:11:28;;;;;;;8.25;2.65;;;;;;;6.83;99.62;99873.41;5084191;28;20201;-68
2022/02/09 07:13:54;;;;;;;12.02;2.67;;;;;;;6.82;99.99;99876.00;5084213;28;20020;-68
2022/02/09 07:16:21;;;;;;;9.48;2.72;;;;;;;6.83;100.00;99872.53;5084285;28;20024;-68
2022/02/09 07:18:48;;;;;;;6.68;2.80;;;;;;;6.79;99.56;99871.59;5084122;28;20025;-68
2022/02/09 07:21:19;;;;;;;9.40;2.42;;;;;;;6.78;99.58;99877.69;5084337;28;20059;-68
2022/02/09 07:23:51;;;;;;;6.90;2.97;;;;;;;6.69;99.75;99880.16;5084264;28;20343;-68
2022/02/09 07:26:20;;;;;;;12.00;3.30;;;;;;;6.60;99.72;99869.56;5084070;28;20060;-68
2022/02/09 07:28:46;;;;;;;9.23;3.13;;;;;;;6.57;100.00;99879.97;5083938;28;20028;-68
2022/02/09 07:31:13;;;;;;;8.43;2.95;;;;;;;6.56;99.80;99867.75;5083916;28;20089;-68
2022/02/09 07:33:41;;;;;;;7.38;2.88;;;;;;;6.53;99.66;99873.81;5083926;28;20017;-68
2022/02/09 07:36:08;;;;;;;8.73;2.63;;;;;;;6.55;100.00;99881.66;5083893;28;20320;-68
2022/02/09 07:38:34;;;;;;;9.50;3.47;;;;;;;6.55;99.85;99877.31;5083904;28;20087;-68
2022/02/09 07:41:01;;;;;;;5.43;2.60;;;;;;;6.55;99.01;99868.59;5083893;28;20028;-68
2022/02/09 07:56:17;;;;;;;13.38;3.88;;;;;;;6.32;100.00;99867.34;5083636;28;20200;-68
2022/02/09 07:58:42;;;;;;;14.40;4.00;;;;;;;6.33;100.00;99869.97;5083701;28;20036;-68
2022/02/09 08:01:08;;;;;;;14.95;5.55;;;;;;;6.35;100.00;99862.16;5083923;28;20273;-68
2022/02/09 08:03:35;;;;;;;12.88;6.43;;;;;;;6.43;100.00;99863.19;5083632;28;20220;-68
2022/02/09 08:06:02;;;;;;;19.05;7.40;;;;;;;6.45;100.00;99864.06;5083868;28;20016;-68
2022/02/09 08:08:30;;;;;;;15.85;8.20;;;;;;;6.50;100.00;99854.56;5083614;28;20024;-68
2022/02/09 08:11:07;;;;;;;22.95;9.32;;;;;;;6.52;100.00;99855.50;5083516;28;20029;-68
2022/02/09 08:34:53;;;;;;;9.70;2.97;;;;;;;10.81;85.99;99843.94;5087388;28;20024;-68
2022/02/09 08:37:19;;;;;;;4.05;1.92;;;;;;;11.53;82.18;99843.75;5087130;28;20020;-68
2022/02/09 08:39:44;;;;;;;6.30;2.53;;;;;;;12.39;77.61;99833.59;5087098;28;20020;-68
2022/02/09 08:42:10;;;;;;;4.25;1.83;;;;;;;12.89;74.97;99826.13;5087098;28;20031;-68
2022/02/09 08:44:36;;;;;;;6.25;2.40;;;;;;;13.52;73.47;99828.97;5086967;28;20031;-68
2022/02/09 08:47:01;;;;;;;3.00;1.80;;;;;;;13.96;71.77;99829.28;5086903;28;20146;-68
2022/02/09 08:49:28;;;;;;;6.10;1.98;;;;;;;14.37;69.31;99829.56;5086888;28;20020;-68
2022/02/09 08:51:57;;;;;;;3.92;1.88;;;;;;;14.51;67.99;99819.63;5086852;28;20031;-68
2022/02/09 08:54:23;;;;;;;4.97;1.60;;;;;;;14.65;67.88;99820.28;5086790;28;20083;-68
2022/02/09 08:56:49;;;;;;;3.30;1.30;;;;;;;14.60;66.73;99817.72;5086668;28;20199;-68
2022/02/09 08:59:14;;;;;;;3.25;1.98;;;;;;;14.71;65.40;99820.16;5086964;28;20022;-68
2022/02/09 09:01:43;;;;;;;4.72;2.00;;;;;;;14.97;64.67;99914.25;5086658;28;20020;-68
2022/02/09 09:04:24;;;;;;;2.90;1.65;;;;;;;15.36;64.50;99851.69;5086542;28;20097;-68
2022/02/09 09:06:55;;;;;;;4.85;1.83;;;;;;;15.37;63.73;99853.44;5086558;28;20027;-68
2022/02/09 09:58:21;;;;;;;10.88;2.33;;;;;;;15.44;61.51;99783.44;5085707;28;20042;-68
2022/02/09 10:03:34;;;;;;;6.10;1.90;;;;;;;14.97;60.72;99780.84;5085499;28;20020;-68
2022/02/09 10:33:51;;;;;;;12.70;2.65;;;;;;;14.60;65.22;99769.13;5085192;28;20054;-68
2022/02/09 10:36:20;;;;;;;9.02;2.75;;;;;;;14.44;64.57;99772.94;5084974;28;20016;-68
2022/02/09 10:38:47;;;;;;;6.70;2.42;;;;;;;14.63;66.21;99769.06;5085003;28;20030;-68
2022/02/09 10:41:25;;;;;;;8.88;2.67;;;;;;;14.55;64.44;99765.66;5084973;28;20070;-68
2022/02/09 10:44:10;;;;;;;8.30;2.50;;;;;;;14.52;65.29;99761.31;5083789;28;20048;-68
2022/02/09 10:46:49;;;;;;;8.65;3.08;;;;;;;14.64;65.98;99752.28;5084632;28;20021;-68
2022/02/09 10:49:18;;;;;;;9.98;2.90;;;;;;;14.47;66.82;99751.69;5084922;28;20028;-68
2022/02/09 10:51:52;;;;;;;18.52;2.63;;;;;;;14.41;67.18;99749.16;5084634;28;20389;-68
2022/02/09 10:54:29;;;;;;;7.47;2.45;;;;;;;14.39;66.89;99743.00;5084458;28;20088;-68
2022/02/09 10:56:57;;;;;;;12.68;2.70;;;;;;;14.39;67.84;99743.88;5084659;28;20032;-68
2022/02/09 10:59:25;;;;;;;8.73;2.75;;;;;;;14.44;67.28;99725.25;5084368;28;20021;-68
2022/02/09 11:01:52;;;;;;;11.20;2.33;;;;;;;14.47;66.95;99735.81;5084338;28;20028;-68
2022/02/09 11:04:18;;;;;;;3.35;1.95;;;;;;;14.36;68.04;99732.44;5084311;28;20024;-68
2022/02/09 11:06:46;;;;;;;5.13;1.88;;;;;;;14.53;66.23;99735.69;5084497;28;20058;-68
2022/02/09 11:09:16;;;;;;;12.15;1.88;;;;;;;14.47;67.25;99730.50;5084289;28;20031;-68
2022/02/09 11:11:42;;;;;;;7.47;1.77;;;;;;;14.43;66.54;99723.53;5084282;28;20091;-68
2022/02/09 11:14:14;;;;;;;8.43;1.80;;;;;;;14.33;66.84;99722.78;5084148;28;20087;-68
2022/02/09 11:16:46;;;;;;;11.32;2.47;;;;;;;13.96;66.71;99715.44;5084412;28;20024;-68
2022/02/09 11:19:15;;;;;;;10.18;2.00;;;;;;;13.98;68.33;99713.66;5084173;28;20029;-68
2022/02/09 11:21:41;;;;;;;10.15;2.08;;;;;;;14.14;67.81;99717.81;5084142;28;20030;-67
2022/02/09 11:24:41;;;;;;;6.80;2.67;;;;;;;14.05;68.80;99715.31;5084235;28;20212;-68
2022/02/09 11:27:32;;;;;;;7.90;2.15;;;;;;;13.84;68.03;99705.94;5084040;28;20024;-68
2022/02/09 11:30:24;;;;;;;9.73;2.50;;;;;;;13.90;67.70;99710.25;5083885;28;20083;-68
2022/02/09 11:33:05;;;;;;;;;;;;;;;13.68;69.20;99708.81;5084488;28;20095;-68
2022/02/09 11:35:41;;;;;;;4.35;1.50;;;;;;;13.69;69.77;99707.91;5084166;28;19923;-68
2022/02/09 11:38:23;;;;;;;7.00;1.58;;;;;;;13.80;69.92;99708.66;5084231;28;20024;-68
2022/02/09 11:41:08;;;;;;;8.88;1.73;;;;;;;13.88;69.01;99701.44;5083905;28;20070;-68
2022/02/09 11:51:47;;;;;;;8.18;2.03;;;;;;;13.72;70.73;99700.81;5083858;28;20084;-68
2022/02/09 11:58:03;;;;;;;8.20;2.17;;;;;;;13.74;69.62;99687.56;5087846;28;20088;-68
2022/02/09 12:11:15;;;;;;;5.10;1.67;;;;;;;13.37;69.96;99659.91;5087705;28;20070;-68
2022/02/09 12:19:10;;;;;;;7.40;2.00;;;;;;;13.29;70.22;99638.84;5087549;28;20220;-68
2022/02/09 12:22:10;;;;;;;4.40;1.50;;;;;;;13.29;70.82;99638.84;5088026;28;20025;-68
2022/02/09 12:24:33;;;;;;;7.25;1.80;;;;;;;13.27;71.40;99632.72;5086404;28;20320;-68
2022/02/09 12:27:13;;;;;;;6.93;1.48;;;;;;;13.28;70.70;99638.88;5087546;28;20068;-68
2022/02/09 12:29:44;;;;;;;5.60;1.48;;;;;;;13.16;70.96;99631.97;5087377;28;20030;-68
2022/02/09 12:32:15;;;;;;;7.53;1.65;;;;;;;13.07;71.38;99618.94;5087244;28;20071;-68
2022/02/09 12:34:59;;;;;;;4.55;1.73;;;;;;;12.97;72.80;99628.69;5087227;28;20039;-68
2022/02/09 12:37:30;;;;;;;6.68;1.92;;;;;;;13.00;72.24;99618.13;5087369;28;20328;-68
2022/02/09 12:39:57;;;;;;;4.40;1.57;;;;;;;12.90;72.70;99616.47;5087088;28;20024;-68
2022/02/09 12:42:32;;;;;;;3.67;1.50;;;;;;;12.93;73.03;99624.34;5087026;28;20092;-68
2022/02/09 12:45:00;;;;;;;6.88;1.35;;;;;;;12.89;70.83;99614.72;5087008;28;20020;-68
2022/02/09 12:47:38;;;;;;;3.65;1.55;;;;;;;12.80;71.05;99614.84;5086879;28;20021;-68
2022/02/09 12:50:11;;;;;;;4.53;1.30;;;;;;;12.73;72.35;99615.81;5069386;28;20048;-68
2022/02/09 12:52:37;;;;;;;;;;;;;;;12.68;72.54;99614.97;5087308;28;20044;-68
2022/02/09 12:55:12;;;;;;;4.40;1.70;;;;;;;12.61;73.17;99618.59;5086738;28;19904;-68
2022/02/09 12:57:51;;;;;;;5.32;2.15;;;;;;;12.61;72.74;99608.03;5086757;28;20032;-68
2022/02/09 13:00:41;;;;;;;4.20;1.25;;;;;;;12.61;72.25;99601.88;5087002;28;20032;-68
2022/02/09 13:03:12;;;;;;;6.28;1.35;;;;;;;12.42;72.81;99597.69;5086649;28;20312;-68
2022/02/09 13:05:50;;;;;;;2.05;1.00;;;;;;;12.54;71.40;99595.81;5086640;28;20221;-68
2022/02/09 13:08:27;;;;;;;2.35;1.02;;;;;;;12.49;72.15;99591.44;5085822;28;20212;-68
2022/02/09 13:11:17;;;;;;;4.75;1.73;;;;;;;12.40;73.58;99587.16;5086603;28;20101;-68
2022/02/09 13:13:46;;;;;;;6.43;1.70;;;;;;;12.38;73.59;99583.66;5086609;28;20354;-68
2022/02/09 13:16:27;;;;;;;6.47;1.60;;;;;;;12.35;74.43;99573.16;5086607;28;20078;-68
2022/02/09 14:02:53;;;;;;;3.85;1.42;;;;;;;11.92;72.30;99556.00;5085675;28;20028;-68
2022/02/09 14:34:21;;;;;;;5.78;1.83;;;;;;;11.54;73.42;99526.44;5084955;28;20130;-68
2022/02/09 14:57:52;;;;;;;2.85;1.38;;;;;;;11.09;75.18;99505.75;5084495;28;20114;-68
2022/02/09 15:00:22;;;;;;;5.75;1.88;;;;;;;11.07;75.02;99502.25;5084714;28;20309;-68
2022/02/09 15:02:59;;;;;;;5.68;1.90;;;;;;;11.11;73.73;99504.00;5084389;28;20062;-68
2022/02/09 15:10:45;;;;;;;4.93;2.08;;;;;;;10.95;73.19;99505.00;5084607;28;20095;-68
2022/02/09 15:16:13;;;;;;;4.85;2.00;;;;;;;10.80;71.85;99502.44;5084155;28;20047;-68
2022/02/09 15:24:29;;;;;;;2.88;1.45;;;;;;;10.64;73.30;99500.81;5022538;28;20030;-68
2022/02/09 15:27:00;;;;;;;2.72;1.40;;;;;;;10.66;71.84;99491.13;5022594;28;20030;-68
2022/02/09 15:29:25;;;;;;;3.75;1.83;;;;;;;10.60;73.17;99485.91;5022137;28;20065;-68
2022/02/09 15:31:58;;;;;;;5.88;2.05;;;;;;;10.58;73.79;99490.31;5022374;28;20215;-68
2022/02/09 15:34:35;;;;;;;5.68;1.38;;;;;;;10.56;73.47;99492.94;5022646;28;20226;-68
2022/02/09 15:37:08;;;;;;;4.30;2.08;;;;;;;10.46;74.15;99485.97;5022137;28;20404;-68
2022/02/09 15:39:40;;;;;;;7.82;2.05;;;;;;;10.47;73.35;99484.22;5018447;28;20341;-68
2022/02/09 16:22:14;;;;;;;4.05;2.03;;;;;;;9.08;79.41;99501.22;5063539;28;20077;-68
2022/02/09 16:38:10;;;;;;;8.60;2.43;;;;;;;8.14;82.19;99521.94;5043420;28;20278;-68
2022/02/09 16:46:07;;;;;;;9.35;2.33;;;;;;;7.67;83.43;99510.34;5047061;28;20056;-68
2022/02/09 16:48:33;;;;;;;6.38;2.00;;;;;;;7.53;84.18;99513.75;5047252;28;20025;-68
2022/02/09 16:51:01;;;;;;;9.75;2.05;;;;;;;7.40;84.22;99507.53;5046840;28;20025;-68
2022/02/09 16:53:44;;;;;;;3.90;2.05;;;;;;;7.24;84.91;99508.28;5047122;28;20035;-68
2022/02/09 17:15:37;;;;;;;14.68;2.13;;;;;;;6.18;87.98;99509.00;5046440;28;20364;-68
2022/02/09 17:20:47;;;;;;;3.80;1.88;;;;;;;6.00;88.93;99513.13;5046441;28;20028;-68
2022/02/09 17:23:13;;;;;;;2.80;1.60;;;;;;;5.92;89.72;99509.53;5060944;28;20013;-68
2022/02/09 17:25:38;;;;;;;4.90;1.77;;;;;;;5.86;89.75;99515.53;5065366;28;20027;-68
2022/02/09 17:28:06;;;;;;;5.82;2.35;;;;;;;5.75;89.78;99511.00;5066021;28;20321;-68
2022/02/09 17:33:26;;;;;;;3.70;1.88;;;;;;;5.62;90.16;99519.53;5086227;28;20099;-68
2022/02/09 17:36:02;;;;;;;5.32;2.10;;;;;;;5.47;90.05;99514.09;5085636;28;20092;-68
2022/02/09 17:57:23;;;;;;;7.20;1.90;;;;;;;4.80;90.88;99506.03;5085289;28;20067;-68
2022/02/09 18:00:08;;;;;;;6.47;2.35;;;;;;;4.75;91.34;99507.69;5085615;28;20020;-68
2022/02/09 18:02:34;;;;;;;9.05;2.20;;;;;;;4.74;91.41;99506.81;5085292;28;20020;-68
2022/02/09 18:05:01;;;;;;;9.57;1.92;;;;;;;4.69;91.06;99507.59;5082236;28;20259;-69
2022/02/09 18:07:29;;;;;;;4.60;2.15;;;;;;;4.49;91.44;99504.59;5079451;28;20130;-69
2022/02/09 18:10:04;;;;;;;11.93;2.97;;;;;;;4.41;91.83;99512.31;5079323;28;20048;-69
2022/02/09 18:12:50;;;;;;;7.20;2.67;;;;;;;4.32;91.86;99501.72;5079367;28;20043;-69
2022/02/09 18:29:09;;;;;;;6.10;2.35;;;;;;;4.14;92.79;99501.34;5083200;28;20055;-69
2022/02/09 18:31:38;;;;;;;9.32;4.25;;;;;;;4.09;93.66;99502.97;5079960;28;20343;-69
2022/02/09 18:34:08;;;;;;;9.07;3.45;;;;;;;4.00;93.76;99502.81;5083464;28;20020;-69
2022/02/09 18:44:37;;;;;;;8.75;3.78;;;;;;;3.62;93.52;99498.53;5083063;28;20021;-69
2022/02/09 18:57:59;;;;;;;14.23;5.93;;;;;;;3.32;94.72;99482.22;5083019;28;20038;-69
2022/02/09 19:02:57;;;;;;;16.58;8.00;;;;;;;3.32;94.27;99487.44;5082452;28;20012;-69
2022/02/09 19:05:30;;;;;;;10.98;5.57;;;;;;;3.17;94.10;99481.91;5078528;28;20078;-69
2022/02/09 19:19:03;;;;;;;12.52;3.42;;;;;;;3.19;94.83;99488.00;5082467;28;20017;-69
2022/02/09 19:29:57;;;;;;;11.40;3.53;;;;;;;2.83;95.74;99483.63;5082557;28;20020;-69
2022/02/09 19:48:34;;;;;;;16.42;8.23;;;;;;;2.60;96.92;99475.28;5081515;28;20024;-69
2022/02/09 19:56:51;;;;;;;12.00;6.43;;;;;;;2.53;96.24;99473.34;4980565;28;20034;-69
2022/02/09 19:59:20;;;;;;;17.17;8.68;;;;;;;2.45;96.22;99469.69;5065163;28;20028;-69
2022/02/09 20:01:46;;;;;;;17.70;6.97;;;;;;;2.48;96.14;99464.59;5081262;28;20189;-69
2022/02/09 20:04:14;;;;;;;15.60;7.53;;;;;;;2.30;95.93;99466.69;5079309;28;20342;-69
2022/02/09 20:06:40;;;;;;;20.55;9.25;;;;;;;2.28;96.68;99466.66;5081493;28;20017;-69
2022/02/09 20:09:06;;;;;;;20.95;8.90;;;;;;;2.27;96.89;99469.22;5078554;28;20074;-69
2022/02/09 20:11:32;;;;;;;30.23;12.90;;;;;;;2.18;96.19;99468.97;5081095;28;20021;-69
2022/02/09 20:13:58;;;;;;;30.95;11.90;;;;;;;2.02;96.15;99477.16;5081443;28;20024;-69
2022/02/09 20:16:24;;;;;;;31.50;12.68;;;;;;;1.97;97.08;99463.22;5083012;28;20197;-69
2022/02/09 20:18:52;;;;;;;42.58;16.30;;;;;;;1.95;97.22;99460.56;5084845;28;20091;-69
2022/02/09 20:21:20;;;;;;;36.25;13.10;;;;;;;2.03;97.21;99463.38;5083982;28;20343;-69
2022/02/09 20:23:46;;;;;;;32.13;9.27;;;;;;;2.10;96.76;99471.38;5083255;28;20023;-69
2022/02/09 20:26:13;;;;;;;27.02;9.80;;;;;;;1.97;97.10;99473.59;5085347;28;20212;-69
2022/02/09 20:28:43;;;;;;;46.42;14.68;;;;;;;1.86;97.04;99469.81;5084385;28;20309;-69
2022/02/09 20:31:13;;;;;;;25.73;10.73;;;;;;;1.87;97.46;99472.44;5066789;28;20044;-69
2022/02/09 20:33:41;;;;;;;54.38;18.85;;;;;;;1.84;97.36;99471.50;5085733;28;20091;-69
2022/02/09 20:36:08;;;;;;;42.67;13.30;;;;;;;1.91;97.50;99463.03;5083939;28;20063;-69
2022/02/09 20:38:35;;;;;;;40.55;15.95;;;;;;;1.85;97.57;99462.88;5085317;28;20122;-69
2022/02/09 20:41:06;;;;;;;46.55;15.82;;;;;;;1.87;97.48;99466.41;5085088;28;20024;-69
2022/02/09 20:43:38;;;;;;;51.75;19.52;;;;;;;1.75;97.39;99460.84;5085489;28;20305;-69
2022/02/09 20:46:06;;;;;;;;;;;;;;;1.73;97.08;99457.31;5085668;28;20296;-69
2022/02/09 20:48:32;;;;;;;84.60;28.60;;;;;;;1.69;97.27;99455.47;5085136;28;19904;-69
2022/02/09 20:51:01;;;;;;;29.15;12.63;;;;;;;1.75;97.59;99458.25;5084529;28;20032;-69
2022/02/09 20:53:27;;;;;;;39.35;13.20;;;;;;;1.79;97.91;99465.28;5084690;28;20073;-69
2022/02/09 20:55:52;;;;;;;35.42;13.05;;;;;;;1.83;97.36;99464.53;5084862;28;20031;-69
2022/02/09 20:58:19;;;;;;;26.38;11.32;;;;;;;1.57;96.96;99460.31;5084992;28;20016;-69
2022/02/09 21:08:52;;;;;;;21.40;8.07;;;;;;;1.58;97.85;99456.91;5084060;28;20040;-69
2022/02/09 21:26:58;;;;;;;18.65;7.20;;;;;;;1.46;97.49;99451.34;5084798;28;20048;-69
2022/02/09 21:56:39;;;;;;;53.58;19.45;;;;;;;0.98;97.99;99429.16;5082083;28;20031;-69
2022/02/09 22:23:59;;;;;;;141.30;47.85;;;;;;;0.78;97.39;99393.94;5083073;28;20059;-68
2022/02/09 22:29:09;;;;;;;100.10;34.47;;;;;;;0.71;97.58;99392.00;5083111;28;20082;-68
2022/02/09 22:31:48;;;;;;;116.30;40.47;;;;;;;0.73;98.25;99395.53;5081932;28;20068;-68
2022/02/09 22:48:15;;;;;;;116.68;42.15;;;;;;;0.68;98.27;99391.91;5081722;28;20020;-68
2022/02/09 22:50:52;;;;;;;97.90;37.90;;;;;;;0.59;97.94;99386.44;5080111;28;20022;-68
2022/02/09 22:56:03;;;;;;;77.07;29.55;;;;;;;0.56;97.98;99381.16;5082501;28;20031;-68
2022/02/09 22:58:28;;;;;;;72.47;30.67;;;;;;;0.52;98.13;99363.78;5082386;28;20016;-68
2022/02/09 23:09:12;;;;;;;27.40;12.60;;;;;;;0.51;98.20;99362.91;5082651;28;20063;-68
2022/02/09 23:54:32;;;;;;;80.38;30.17;;;;;;;0.43;99.70;99332.41;5082858;28;20142;-68
